Skip to main content

NOAA/GLERL Met Station at Muskegon, MI

Previous 3 Hours (2 minute increments)
See also Previous 5 Days (top of hour)
Jump down to Data
Switch to [English][Metric]
Zoom: Click and drag, Pan: shift-click and drag, Unzoom: double-click, Unzoom All






See also 1-day windrose plot


NOAA/GLERL Met Station at Muskegon, MI

Previous 3 Hours (2 minute increments)
See also Previous 5 Days (top of hour only)
Jump up to Graphs
Switch to [English][Metric]
                  Wind  Wind  Wind   Air   Dew   Rel     Sta   PAR
                   Spd   Gst   Dir  Temp    Pt   Hum    Pres uE/m2/
YYYY-MM-DD   EDT   kts   kts   deg     F     F     %   in Hg   sec
2019-04-20 03:20  10.9  13.4    56  40.3  25.5  55.2   29.20     2
2019-04-20 03:18   9.7  11.7    57  40.3  25.5  55.1   29.21     2
2019-04-20 03:16   9.7  11.9    56  40.3  25.4  55.0   29.21     2
2019-04-20 03:14  10.3  13.2    52  40.3  25.3  54.7   29.21     2
2019-04-20 03:12  10.3  12.4    54  40.5  25.6  55.1   29.21     2
2019-04-20 03:10  10.3  15.0    56  40.5  25.5  54.7   29.21     2
2019-04-20 03:08  11.1  16.7    49  40.3  25.5  55.3   29.21     2
2019-04-20 03:06   9.9  13.0    55  40.3  25.8  55.8   29.21     2
2019-04-20 03:04  10.5  14.2    54  40.3  25.3  54.8   29.21     2
2019-04-20 03:02  11.1  14.8    54  40.3  25.3  54.8   29.21     2
2019-04-20 03:00  11.3  14.2    54  40.3  25.6  55.4   29.21     2
2019-04-20 02:58  10.7  15.6    50  40.3  25.8  55.8   29.21     2
2019-04-20 02:56  11.9  15.9    46  40.3  25.7  55.6   29.21     2
2019-04-20 02:54  10.7  13.8    49  40.5  25.7  55.2   29.21     2
2019-04-20 02:52  10.5  12.2    44  40.5  25.7  55.2   29.21     2
2019-04-20 02:50  11.3  14.4    47  40.5  25.8  55.5   29.21     2
2019-04-20 02:48  11.5  14.4    46  40.5  25.6  55.0   29.21     2
2019-04-20 02:46   9.9  15.4    47  40.5  25.7  55.3   29.21     2
2019-04-20 02:44   9.9  13.8    49  40.6  25.8  55.2   29.21     2
2019-04-20 02:42  10.7  12.6    46  40.6  25.8  55.0   29.21     2
2019-04-20 02:40  11.1  15.4    45  40.8  25.9  54.9   29.21     2
2019-04-20 02:38  12.4  14.6    44  40.8  26.0  55.1   29.21     2
2019-04-20 02:36   9.9  12.2    46  40.8  26.0  55.2   29.21     2
2019-04-20 02:34  11.9  14.0    44  41.0  25.9  54.5   29.21     2
2019-04-20 02:32  11.3  15.0    47  41.0  25.8  54.3   29.21     2
2019-04-20 02:30  12.1  14.2    45  41.0  25.7  54.2   29.21     2
2019-04-20 02:28  12.2  16.1    49  41.0  25.6  54.0   29.21     2
2019-04-20 02:26  12.8  16.9    52  41.2  26.0  54.3   29.21     2
2019-04-20 02:24  10.9  12.4    51  41.0  25.7  54.2   29.22     2
2019-04-20 02:22   9.9  13.8    52  41.2  26.0  54.5   29.22     2
2019-04-20 02:20  10.5  14.2    50  41.2  26.0  54.3   29.22     2
2019-04-20 02:18  10.7  13.8    53  41.4  26.1  54.2   29.22     2
2019-04-20 02:16  11.7  14.6    49  41.4  26.0  54.1   29.22     2
2019-04-20 02:14  10.9  13.6    50  41.4  25.9  53.7   29.22     2
2019-04-20 02:12  12.8  18.1    50  41.5  26.1  53.8   29.22     2
2019-04-20 02:10  12.4  14.8    52  41.5  26.1  53.8   29.22     2
2019-04-20 02:08  12.1  17.1    48  41.5  25.9  53.5   29.22     2
2019-04-20 02:06  13.8  17.1    51  41.4  25.8  53.5   29.22     2
2019-04-20 02:04  12.1  14.6    50  41.4  26.0  54.0   29.22     2
2019-04-20 02:02  13.4  17.9    52  41.4  26.0  54.1   29.22     2
2019-04-20 02:00  12.6  15.4    50  41.4  26.0  54.0   29.22     2
2019-04-20 01:58  13.8  19.4    49  41.4  26.2  54.4   29.22     2
2019-04-20 01:56  13.8  18.3    49  41.2  26.3  55.2   29.22     2
2019-04-20 01:54  12.2  15.6    46  41.0  26.4  55.7   29.22     2
2019-04-20 01:52  12.4  14.4    46  41.0  26.5  55.9   29.22     2
2019-04-20 01:50  11.9  14.4    40  41.0  26.4  55.8   29.22     2
2019-04-20 01:48  12.4  15.2    44  41.0  26.5  56.0   29.22     2
2019-04-20 01:46  12.4  15.4    38  41.0  26.6  56.1   29.22     2
2019-04-20 01:44  12.4  16.3    38  41.0  26.7  56.3   29.22     2
2019-04-20 01:42  11.9  14.2    35  41.0  26.7  56.4   29.22     2
2019-04-20 01:40  12.4  15.9    39  41.0  26.9  56.9   29.22     2
2019-04-20 01:38  11.3  13.4    37  41.0  26.9  56.9   29.22     2
2019-04-20 01:36   9.9  12.8    40  41.2  27.0  56.6   29.23     2
2019-04-20 01:34  10.3  12.8    39  41.2  26.7  56.1   29.23     2
2019-04-20 01:32  12.1  14.0    40  41.2  26.9  56.4   29.23     2
2019-04-20 01:30  11.7  16.9    41  41.4  27.0  56.4   29.23     2
2019-04-20 01:28  11.9  15.7    36  41.4  27.0  56.3   29.23     2
2019-04-20 01:26  11.7  15.0    37  41.4  27.0  56.2   29.23     2
2019-04-20 01:24  12.2  16.3    42  41.4  27.1  56.5   29.23     2
2019-04-20 01:22  11.9  15.6    42  41.2  27.1  56.9   29.23     2
2019-04-20 01:20   9.5  13.2    40  41.2  27.1  57.0   29.23     2
2019-04-20 01:18  10.1  12.8    41  41.4  27.4  57.3   29.24     2
2019-04-20 01:16   9.9  11.9    40  41.4  27.3  56.9   29.24     2
2019-04-20 01:14  10.5  12.8    43  41.4  27.3  56.9   29.24     2
2019-04-20 01:12   9.5  11.5    38  41.5  27.3  56.6   29.24     2
2019-04-20 01:10  10.1  12.2    43  41.5  27.4  56.9   29.24     2
2019-04-20 01:08   9.9  12.6    38  41.5  27.3  56.7   29.24     2
2019-04-20 01:06  10.9  13.2    39  41.5  27.2  56.4   29.24     2
2019-04-20 01:04  11.3  13.6    40  41.5  27.1  56.2   29.24     2
2019-04-20 01:02  10.3  13.0    34  41.7  27.2  56.0   29.24     2
2019-04-20 01:00  10.3  13.8    36  41.7  27.3  56.2   29.24     2
2019-04-20 00:58  10.3  12.4    36  41.7  27.5  56.6   29.25     2
2019-04-20 00:56  10.7  14.6    38  41.5  27.3  56.5   29.25     2
2019-04-20 00:54  10.9  12.8    41  41.5  27.4  56.9   29.25     2
2019-04-20 00:52   8.9  11.9    35  41.5  27.5  57.0   29.25     2
2019-04-20 00:50   9.3  12.1    33  41.5  27.3  56.7   29.25     2
2019-04-20 00:48   8.6  11.7    33  41.7  27.4  56.5   29.25     2
2019-04-20 00:46   9.1  10.9    33  41.7  27.3  56.3   29.25     2
2019-04-20 00:44   7.8   9.3    33  41.9  27.4  56.0   29.25     2
2019-04-20 00:42   8.9  10.7    31  42.1  27.6  56.1   29.25     2
2019-04-20 00:40  10.1  12.2    33  42.1  27.5  56.0   29.25     2
2019-04-20 00:38   9.5  11.5    31  42.1  27.6  56.1   29.25     2
2019-04-20 00:36   8.7  11.1    31  42.3  27.6  55.7   29.24     2
2019-04-20 00:34   9.5  11.1    30  42.3  27.6  55.8   29.24     2
2019-04-20 00:32  10.1  12.8    33  42.3  27.6  55.8   29.24     2
2019-04-20 00:30   8.4  10.9    34  42.3  27.7  55.9   29.24     2
2019-04-20 00:28   8.4  10.5    36  42.3  27.7  55.9   29.24     2
2019-04-20 00:26   7.4   9.9    36  42.3  27.5  55.5   29.24     2
2019-04-20 00:24   8.4   9.7    33  42.3  27.4  55.2   29.24     2
2019-04-20 00:22   8.6   9.7    33  42.3  27.4  55.2   29.24     2
2019-04-20 00:20   8.6  10.5    32  42.4  27.5  55.2   29.24     2